sensor_id;sensor_type;location;lat;lon;timestamp;pressure;altitude;pressure_sealevel;temperature;humidity
7824;BME280;3957;48.61947800;9.05303100;2022-11-14T00:01:22;95980.28;;;-0.98;100.00
7824;BME280;3957;48.61947800;9.05303100;2022-11-14T00:03:04;95987.06;;;-0.96;100.00
7824;BME280;3957;48.61947800;9.05303100;2022-11-14T00:04:47;95994.53;;;-0.91;100.00
7824;BME280;3957;48.61947800;9.05303100;2022-11-14T00:06:26;96001.56;;;-0.92;100.00
7824;BME280;3957;48.61947800;9.05303100;2022-11-14T00:08:06;96002.94;;;-0.97;100.00
7824;BME280;3957;48.61947800;9.05303100;2022-11-14T00:09:45;95997.25;;;-1.03;100.00
7824;BME280;3957;48.61947800;9.05303100;2022-11-14T00:11:25;96006.38;;;-1.07;100.00
7824;BME280;3957;48.61947800;9.05303100;2022-11-14T00:13:04;96000.44;;;-1.09;100.00
7824;BME280;3957;48.61947800;9.05303100;2022-11-14T00:14:43;96010.38;;;-1.12;100.00
7824;BME280;3957;48.61947800;9.05303100;2022-11-14T00:16:23;96007.47;;;-1.09;100.00
7824;BME280;3957;48.61947800;9.05303100;2022-11-14T00:18:02;96010.38;;;-1.12;100.00
7824;BME280;3957;48.61947800;9.05303100;2022-11-14T00:19:41;96010.22;;;-1.11;100.00
7824;BME280;3957;48.61947800;9.05303100;2022-11-14T00:21:20;96002.22;;;-1.09;100.00
7824;BME280;3957;48.61947800;9.05303100;2022-11-14T00:23:00;95997.41;;;-1.04;100.00
7824;BME280;3957;48.61947800;9.05303100;2022-11-14T00:24:39;95999.88;;;-1.03;100.00
7824;BME280;3957;48.61947800;9.05303100;2022-11-14T00:26:18;95993.81;;;-1.03;100.00
7824;BME280;3957;48.61947800;9.05303100;2022-11-14T00:27:58;95993.81;;;-1.03;100.00
7824;BME280;3957;48.61947800;9.05303100;2022-11-14T00:29:37;95995.72;;;-1.05;100.00
7824;BME280;3957;48.61947800;9.05303100;2022-11-14T00:31:17;95995.19;;;-1.09;100.00
7824;BME280;3957;48.61947800;9.05303100;2022-11-14T00:32:56;96001.25;;;-1.08;100.00
7824;BME280;3957;48.61947800;9.05303100;2022-11-14T00:34:36;96004.03;;;-1.10;100.00
7824;BME280;3957;48.61947800;9.05303100;2022-11-14T00:36:15;95999.56;;;-1.19;100.00
7824;BME280;3957;48.61947800;9.05303100;2022-11-14T00:37:54;96002.19;;;-1.19;100.00
7824;BME280;3957;48.61947800;9.05303100;2022-11-14T00:39:33;95996.38;;;-1.23;100.00
7824;BME280;3957;48.61947800;9.05303100;2022-11-14T00:41:13;95990.16;;;-1.22;100.00
7824;BME280;3957;48.61947800;9.05303100;2022-11-14T00:42:52;95981.72;;;-1.25;100.00
7824;BME280;3957;48.61947800;9.05303100;2022-11-14T00:44:31;95985.19;;;-1.15;100.00
7824;BME280;3957;48.61947800;9.05303100;2022-11-14T00:46:10;95980.34;;;-1.20;100.00
7824;BME280;3957;48.61947800;9.05303100;2022-11-14T00:47:50;95988.09;;;-1.18;100.00
7824;BME280;3957;48.61947800;9.05303100;2022-11-14T00:49:29;95982.84;;;-1.18;100.00
7824;BME280;3957;48.61947800;9.05303100;2022-11-14T00:51:08;95983.13;;;-1.21;100.00
7824;BME280;3957;48.61947800;9.05303100;2022-11-14T00:52:48;95981.72;;;-1.25;100.00
7824;BME280;3957;48.61947800;9.05303100;2022-11-14T00:54:27;95984.50;;;-1.27;100.00
7824;BME280;3957;48.61947800;9.05303100;2022-11-14T00:56:06;95982.09;;;-1.30;100.00
7824;BME280;3957;48.61947800;9.05303100;2022-11-14T00:57:46;95976.63;;;-1.27;100.00
7824;BME280;3957;48.61947800;9.05303100;2022-11-14T00:59:25;95968.59;;;-1.25;100.00
7824;BME280;3957;48.61947800;9.05303100;2022-11-14T01:01:04;95969.03;;;-1.20;100.00
7824;BME280;3957;48.61947800;9.05303100;2022-11-14T01:02:43;95967.22;;;-1.20;100.00
7824;BME280;3957;48.61947800;9.05303100;2022-11-14T01:04:23;95971.78;;;-1.22;100.00
7824;BME280;3957;48.61947800;9.05303100;2022-11-14T01:06:04;95976.22;;;-1.12;100.00
7824;BME280;3957;48.61947800;9.05303100;2022-11-14T01:07:44;95972.78;;;-1.13;100.00
7824;BME280;3957;48.61947800;9.05303100;2022-11-14T01:09:23;95970.69;;;-1.09;100.00
7824;BME280;3957;48.61947800;9.05303100;2022-11-14T01:11:09;95972.22;;;-1.07;100.00
7824;BME280;3957;48.61947800;9.05303100;2022-11-14T01:12:49;95971.56;;;-0.99;100.00
7824;BME280;3957;48.61947800;9.05303100;2022-11-14T01:14:28;95961.50;;;-0.94;100.00
7824;BME280;3957;48.61947800;9.05303100;2022-11-14T01:16:09;95961.91;;;-0.89;100.00
7824;BME280;3957;48.61947800;9.05303100;2022-11-14T01:17:48;95958.91;;;-0.74;100.00
7824;BME280;3957;48.61947800;9.05303100;2022-11-14T01:19:27;95955.03;;;-0.70;100.00
7824;BME280;3957;48.61947800;9.05303100;2022-11-14T01:21:10;95954.06;;;-0.69;100.00
7824;BME280;3957;48.61947800;9.05303100;2022-11-14T01:22:49;95960.28;;;-0.70;100.00
7824;BME280;3957;48.61947800;9.05303100;2022-11-14T01:24:31;95959.31;;;-0.69;100.00
7824;BME280;3957;48.61947800;9.05303100;2022-11-14T01:26:12;95947.44;;;-0.63;100.00
7824;BME280;3957;48.61947800;9.05303100;2022-11-14T01:27:52;95944.66;;;-0.52;100.00
7824;BME280;3957;48.61947800;9.05303100;2022-11-14T01:29:32;95943.94;;;-0.44;100.00
7824;BME280;3957;48.61947800;9.05303100;2022-11-14T01:31:20;95945.63;;;-0.43;100.00
7824;BME280;3957;48.61947800;9.05303100;2022-11-14T01:32:59;95928.75;;;-0.41;100.00
7824;BME280;3957;48.61947800;9.05303100;2022-11-14T01:34:39;95939.81;;;-0.37;100.00
7824;BME280;3957;48.61947800;9.05303100;2022-11-14T01:36:18;95939.25;;;-0.31;100.00
7824;BME280;3957;48.61947800;9.05303100;2022-11-14T01:37:58;95931.66;;;-0.34;100.00
7824;BME280;3957;48.61947800;9.05303100;2022-11-14T01:39:37;95933.56;;;-0.36;100.00
7824;BME280;3957;48.61947800;9.05303100;2022-11-14T01:41:16;95929.44;;;-0.39;100.00
7824;BME280;3957;48.61947800;9.05303100;2022-11-14T01:44:54;95937.88;;;-0.45;100.00
7824;BME280;3957;48.61947800;9.05303100;2022-11-14T01:46:36;95938.44;;;-0.51;100.00
7824;BME280;3957;48.61947800;9.05303100;2022-11-14T01:48:23;95939.69;;;-0.55;100.00
7824;BME280;3957;48.61947800;9.05303100;2022-11-14T01:50:05;95932.47;;;-0.63;100.00
7824;BME280;3957;48.61947800;9.05303100;2022-11-14T01:51:48;95935.69;;;-0.69;100.00
7824;BME280;3957;48.61947800;9.05303100;2022-11-14T01:53:28;95936.78;;;-0.72;100.00
7824;BME280;3957;48.61947800;9.05303100;2022-11-14T01:55:08;95933.88;;;-0.78;100.00
7824;BME280;3957;48.61947800;9.05303100;2022-11-14T01:56:54;95930.28;;;-0.77;100.00
7824;BME280;3957;48.61947800;9.05303100;2022-11-14T01:58:36;95925.41;;;-0.72;100.00
7824;BME280;3957;48.61947800;9.05303100;2022-11-14T02:00:18;95921.81;;;-0.71;100.00
7824;BME280;3957;48.61947800;9.05303100;2022-11-14T02:02:01;95923.78;;;-0.63;100.00
7824;BME280;3957;48.61947800;9.05303100;2022-11-14T02:03:43;95921.81;;;-0.52;100.00
7824;BME280;3957;48.61947800;9.05303100;2022-11-14T02:05:25;95922.81;;;-0.43;100.00
7824;BME280;3957;48.61947800;9.05303100;2022-11-14T02:07:05;95919.31;;;-0.33;100.00
7824;BME280;3957;48.61947800;9.05303100;2022-11-14T02:08:47;95924.84;;;-0.27;100.00
7824;BME280;3957;48.61947800;9.05303100;2022-11-14T02:10:27;95917.91;;;-0.18;100.00
7824;BME280;3957;48.61947800;9.05303100;2022-11-14T02:12:07;95917.50;;;-0.13;100.00
7824;BME280;3957;48.61947800;9.05303100;2022-11-14T02:13:48;95924.00;;;-0.08;100.00
7824;BME280;3957;48.61947800;9.05303100;2022-11-14T02:15:28;95923.19;;;-0.08;100.00
7824;BME280;3957;48.61947800;9.05303100;2022-11-14T02:17:07;95937.44;;;-0.21;100.00
7824;BME280;3957;48.61947800;9.05303100;2022-11-14T02:18:46;95932.88;;;-0.28;100.00
7824;BME280;3957;48.61947800;9.05303100;2022-11-14T02:20:27;95936.19;;;-0.26;100.00
7824;BME280;3957;48.61947800;9.05303100;2022-11-14T02:22:07;95929.00;;;-0.34;100.00
7824;BME280;3957;48.61947800;9.05303100;2022-11-14T02:23:46;95931.66;;;-0.34;100.00
7824;BME280;3957;48.61947800;9.05303100;2022-11-14T02:25:25;95935.22;;;-0.25;100.00
7824;BME280;3957;48.61947800;9.05303100;2022-11-14T02:27:05;95940.31;;;-0.14;100.00
7824;BME280;3957;48.61947800;9.05303100;2022-11-14T02:28:45;95940.06;;;-0.11;100.00
7824;BME280;3957;48.61947800;9.05303100;2022-11-14T02:30:24;95936.31;;;-0.08;100.00
7824;BME280;3957;48.61947800;9.05303100;2022-11-14T02:32:04;95939.91;;;0.01;100.00
7824;BME280;3957;48.61947800;9.05303100;2022-11-14T02:33:43;95925.91;;;0.10;100.00
7824;BME280;3957;48.61947800;9.05303100;2022-11-14T02:35:23;95929.75;;;0.15;100.00
7824;BME280;3957;48.61947800;9.05303100;2022-11-14T02:37:02;95930.84;;;0.23;100.00
7824;BME280;3957;48.61947800;9.05303100;2022-11-14T02:38:41;95930.53;;;0.26;100.00
7824;BME280;3957;48.61947800;9.05303100;2022-11-14T02:40:21;95929.97;;;0.32;100.00
7824;BME280;3957;48.61947800;9.05303100;2022-11-14T02:42:00;95936.47;;;0.38;100.00
7824;BME280;3957;48.61947800;9.05303100;2022-11-14T02:43:39;95923.97;;;0.40;100.00
7824;BME280;3957;48.61947800;9.05303100;2022-11-14T02:45:19;95927.31;;;0.42;100.00
7824;BME280;3957;48.61947800;9.05303100;2022-11-14T02:46:58;95924.53;;;0.43;100.00
7824;BME280;3957;48.61947800;9.05303100;2022-11-14T02:48:38;95928.94;;;0.43;100.00
7824;BME280;3957;48.61947800;9.05303100;2022-11-14T02:50:17;95925.66;;;0.41;100.00
7824;BME280;3957;48.61947800;9.05303100;2022-11-14T02:51:56;95931.06;;;0.39;100.00
7824;BME280;3957;48.61947800;9.05303100;2022-11-14T02:53:36;95935.72;;;0.45;100.00
7824;BME280;3957;48.61947800;9.05303100;2022-11-14T02:55:15;95942.91;;;0.53;100.00
7824;BME280;3957;48.61947800;9.05303100;2022-11-14T02:56:54;95939.31;;;0.54;100.00
7824;BME280;3957;48.61947800;9.05303100;2022-11-14T02:58:33;95942.31;;;0.59;100.00
7824;BME280;3957;48.61947800;9.05303100;2022-11-14T03:00:13;95942.28;;;0.69;100.00
7824;BME280;3957;48.61947800;9.05303100;2022-11-14T03:01:52;95938.97;;;0.67;100.00
7824;BME280;3957;48.61947800;9.05303100;2022-11-14T03:03:32;95938.97;;;0.67;100.00
7824;BME280;3957;48.61947800;9.05303100;2022-11-14T03:05:11;95946.44;;;0.72;100.00
7824;BME280;3957;48.61947800;9.05303100;2022-11-14T03:06:51;95936.88;;;0.71;100.00
7824;BME280;3957;48.61947800;9.05303100;2022-11-14T03:08:30;95945.31;;;0.74;100.00
7824;BME280;3957;48.61947800;9.05303100;2022-11-14T03:10:09;95935.63;;;0.75;100.00
7824;BME280;3957;48.61947800;9.05303100;2022-11-14T03:11:49;95935.47;;;0.76;100.00
7824;BME280;3957;48.61947800;9.05303100;2022-11-14T03:13:28;95928.03;;;0.62;100.00
7824;BME280;3957;48.61947800;9.05303100;2022-11-14T03:15:09;95916.53;;;0.63;100.00
7824;BME280;3957;48.61947800;9.05303100;2022-11-14T03:16:48;95914.59;;;0.65;100.00
7824;BME280;3957;48.61947800;9.05303100;2022-11-14T03:18:27;95912.94;;;0.64;100.00
7824;BME280;3957;48.61947800;9.05303100;2022-11-14T03:20:07;95901.13;;;0.68;100.00
7824;BME280;3957;48.61947800;9.05303100;2022-11-14T03:21:46;95903.78;;;0.68;100.00
7824;BME280;3957;48.61947800;9.05303100;2022-11-14T03:23:26;95901.56;;;0.63;100.00
7824;BME280;3957;48.61947800;9.05303100;2022-11-14T03:25:05;95906.00;;;0.63;100.00
7824;BME280;3957;48.61947800;9.05303100;2022-11-14T03:26:45;95900.19;;;0.59;100.00
7824;BME280;3957;48.61947800;9.05303100;2022-11-14T03:28:24;95910.22;;;0.56;100.00
7824;BME280;3957;48.61947800;9.05303100;2022-11-14T03:30:04;95907.56;;;0.56;100.00
7824;BME280;3957;48.61947800;9.05303100;2022-11-14T03:31:43;95903.97;;;0.57;100.00
7824;BME280;3957;48.61947800;9.05303100;2022-11-14T03:33:23;95905.75;;;0.56;100.00
7824;BME280;3957;48.61947800;9.05303100;2022-11-14T03:35:02;95910.06;;;0.57;100.00
7824;BME280;3957;48.61947800;9.05303100;2022-11-14T03:36:42;95910.88;;;0.58;100.00
7824;BME280;3957;48.61947800;9.05303100;2022-11-14T03:38:21;95903.81;;;0.58;100.00
7824;BME280;3957;48.61947800;9.05303100;2022-11-14T03:40:04;95901.34;;;0.57;100.00
7824;BME280;3957;48.61947800;9.05303100;2022-11-14T03:41:44;95902.31;;;0.56;100.00
7824;BME280;3957;48.61947800;9.05303100;2022-11-14T03:43:23;95903.56;;;0.52;100.00
7824;BME280;3957;48.61947800;9.05303100;2022-11-14T03:45:03;95898.47;;;0.50;100.00
7824;BME280;3957;48.61947800;9.05303100;2022-11-14T03:46:42;95892.66;;;0.46;100.00
7824;BME280;3957;48.61947800;9.05303100;2022-11-14T03:48:21;95897.50;;;0.41;100.00
7824;BME280;3957;48.61947800;9.05303100;2022-11-14T03:50:01;95893.50;;;0.37;100.00
7824;BME280;3957;48.61947800;9.05303100;2022-11-14T03:51:40;95897.84;;;0.28;100.00
7824;BME280;3957;48.61947800;9.05303100;2022-11-14T03:53:19;95904.53;;;0.23;100.00
7824;BME280;3957;48.61947800;9.05303100;2022-11-14T03:54:59;95905.94;;;0.17;100.00
7824;BME280;3957;48.61947800;9.05303100;2022-11-14T03:56:38;95917.00;;;0.11;100.00
7824;BME280;3957;48.61947800;9.05303100;2022-11-14T03:58:17;95918.41;;;0.05;100.00
7824;BME280;3957;48.61947800;9.05303100;2022-11-14T03:59:57;95922.00;;;0.04;100.00
7824;BME280;3957;48.61947800;9.05303100;2022-11-14T04:01:36;95919.81;;;-0.01;100.00
7824;BME280;3957;48.61947800;9.05303100;2022-11-14T04:03:15;95926.03;;;-0.02;100.00
7824;BME280;3957;48.61947800;9.05303100;2022-11-14T04:04:54;95921.34;;;-0.08;100.00
7824;BME280;3957;48.61947800;9.05303100;2022-11-14T04:06:34;95921.91;;;-0.04;100.00
7824;BME280;3957;48.61947800;9.05303100;2022-11-14T04:08:13;95920.66;;;-0.10;100.00
7824;BME280;3957;48.61947800;9.05303100;2022-11-14T04:09:52;95930.03;;;0.03;100.00
7824;BME280;3957;48.61947800;9.05303100;2022-11-14T04:11:32;95915.66;;;-0.03;100.00
7824;BME280;3957;48.61947800;9.05303100;2022-11-14T04:13:11;95901.41;;;-0.01;100.00
7824;BME280;3957;48.61947800;9.05303100;2022-11-14T04:14:50;95904.31;;;-0.04;100.00
7824;BME280;3957;48.61947800;9.05303100;2022-11-14T04:16:29;95899.72;;;-0.02;100.00
7824;BME280;3957;48.61947800;9.05303100;2022-11-14T04:18:09;95892.69;;;-0.01;100.00
7824;BME280;3957;48.61947800;9.05303100;2022-11-14T04:19:48;95899.88;;;-0.03;100.00
7824;BME280;3957;48.61947800;9.05303100;2022-11-14T04:21:28;95900.19;;;-0.06;100.00
7824;BME280;3957;48.61947800;9.05303100;2022-11-14T04:23:07;95903.09;;;-0.09;100.00
7824;BME280;3957;48.61947800;9.05303100;2022-11-14T04:24:46;95906.13;;;-0.14;100.00
7824;BME280;3957;48.61947800;9.05303100;2022-11-14T04:26:26;95906.41;;;-0.17;100.00
7824;BME280;3957;48.61947800;9.05303100;2022-11-14T04:28:05;95898.81;;;-0.20;100.00
7824;BME280;3957;48.61947800;9.05303100;2022-11-14T04:29:44;95898.97;;;-0.22;100.00
7824;BME280;3957;48.61947800;9.05303100;2022-11-14T04:31:23;95899.13;;;-0.23;100.00
7824;BME280;3957;48.61947800;9.05303100;2022-11-14T04:33:03;95899.94;;;-0.23;100.00
7824;BME280;3957;48.61947800;9.05303100;2022-11-14T04:34:42;95890.53;;;-0.25;100.00
7824;BME280;3957;48.61947800;9.05303100;2022-11-14T04:36:21;95900.38;;;-0.27;100.00
7824;BME280;3957;48.61947800;9.05303100;2022-11-14T04:38:01;95897.31;;;-0.23;100.00
7824;BME280;3957;48.61947800;9.05303100;2022-11-14T04:39:40;95889.97;;;-0.19;100.00
7824;BME280;3957;48.61947800;9.05303100;2022-11-14T04:41:19;95884.72;;;-0.19;100.00
7824;BME280;3957;48.61947800;9.05303100;2022-11-14T04:42:58;95881.94;;;-0.18;100.00
7824;BME280;3957;48.61947800;9.05303100;2022-11-14T04:44:38;95880.97;;;-0.16;100.00
7824;BME280;3957;48.61947800;9.05303100;2022-11-14T04:46:17;95878.19;;;-0.15;100.00
7824;BME280;3957;48.61947800;9.05303100;2022-11-14T04:47:56;95873.91;;;-0.16;100.00
7824;BME280;3957;48.61947800;9.05303100;2022-11-14T04:49:35;95872.09;;;-0.15;100.00
7824;BME280;3957;48.61947800;9.05303100;2022-11-14T04:51:15;95879.97;;;-0.15;100.00
7824;BME280;3957;48.61947800;9.05303100;2022-11-14T04:52:54;95875.41;;;-0.13;100.00
7824;BME280;3957;48.61947800;9.05303100;2022-11-14T04:54:33;95865.88;;;-0.14;100.00
7824;BME280;3957;48.61947800;9.05303100;2022-11-14T04:56:12;95873.34;;;-0.20;100.00
7824;BME280;3957;48.61947800;9.05303100;2022-11-14T04:57:56;95885.53;;;-0.19;100.00
7824;BME280;3957;48.61947800;9.05303100;2022-11-14T04:59:35;95885.38;;;-0.17;100.00
7824;BME280;3957;48.61947800;9.05303100;2022-11-14T05:01:15;95881.38;;;-0.21;100.00
7824;BME280;3957;48.61947800;9.05303100;2022-11-14T05:02:54;95884.84;;;-0.21;100.00
7824;BME280;3957;48.61947800;9.05303100;2022-11-14T05:04:33;95882.34;;;-0.22;100.00
7824;BME280;3957;48.61947800;9.05303100;2022-11-14T05:06:13;95878.22;;;-0.25;100.00
7824;BME280;3957;48.61947800;9.05303100;2022-11-14T05:07:53;95879.72;;;-0.22;100.00
7824;BME280;3957;48.61947800;9.05303100;2022-11-14T05:09:32;95874.34;;;-0.21;100.00
7824;BME280;3957;48.61947800;9.05303100;2022-11-14T05:11:16;95861.31;;;-0.12;100.00
7824;BME280;3957;48.61947800;9.05303100;2022-11-14T05:12:56;95852.56;;;-0.13;100.00
7824;BME280;3957;48.61947800;9.05303100;2022-11-14T05:14:35;95849.78;;;-0.11;100.00
7824;BME280;3957;48.61947800;9.05303100;2022-11-14T05:16:14;95847.28;;;-0.03;100.00
7824;BME280;3957;48.61947800;9.05303100;2022-11-14T05:17:56;95837.44;;;-0.01;100.00
7824;BME280;3957;48.61947800;9.05303100;2022-11-14T05:19:35;95842.97;;;0.06;100.00
7824;BME280;3957;48.61947800;9.05303100;2022-11-14T05:21:15;95832.97;;;0.09;100.00
7824;BME280;3957;48.61947800;9.05303100;2022-11-14T05:22:54;95837.81;;;0.04;100.00
7824;BME280;3957;48.61947800;9.05303100;2022-11-14T05:24:34;95841.19;;;-0.04;100.00
7824;BME280;3957;48.61947800;9.05303100;2022-11-14T05:26:15;95843.41;;;-0.09;100.00
7824;BME280;3957;48.61947800;9.05303100;2022-11-14T05:27:54;95847.16;;;-0.11;100.00
7824;BME280;3957;48.61947800;9.05303100;2022-11-14T05:29:34;95845.66;;;-0.14;100.00
7824;BME280;3957;48.61947800;9.05303100;2022-11-14T05:31:13;95844.28;;;-0.18;100.00
7824;BME280;3957;48.61947800;9.05303100;2022-11-14T05:32:55;95850.53;;;-0.19;100.00
7824;BME280;3957;48.61947800;9.05303100;2022-11-14T05:34:34;95845.25;;;-0.19;100.00
7824;BME280;3957;48.61947800;9.05303100;2022-11-14T05:36:15;95852.16;;;-0.18;100.00
7824;BME280;3957;48.61947800;9.05303100;2022-11-14T05:37:54;95855.78;;;-0.19;100.00
7824;BME280;3957;48.61947800;9.05303100;2022-11-14T05:39:33;95857.72;;;-0.21;100.00
7824;BME280;3957;48.61947800;9.05303100;2022-11-14T05:41:17;95853.00;;;-0.18;100.00
7824;BME280;3957;48.61947800;9.05303100;2022-11-14T05:42:57;95851.75;;;-0.13;100.00
7824;BME280;3957;48.61947800;9.05303100;2022-11-14T05:44:37;95854.25;;;-0.12;100.00
7824;BME280;3957;48.61947800;9.05303100;2022-11-14T05:46:16;95854.78;;;-0.08;100.00
7824;BME280;3957;48.61947800;9.05303100;2022-11-14T05:47:56;95851.31;;;-0.09;100.00
7824;BME280;3957;48.61947800;9.05303100;2022-11-14T05:49:35;95849.53;;;-0.08;100.00
7824;BME280;3957;48.61947800;9.05303100;2022-11-14T05:51:14;95840.66;;;-0.07;100.00
7824;BME280;3957;48.61947800;9.05303100;2022-11-14T05:52:55;95846.47;;;-0.04;100.00
7824;BME280;3957;48.61947800;9.05303100;2022-11-14T05:54:34;95850.59;;;-0.01;100.00
7824;BME280;3957;48.61947800;9.05303100;2022-11-14T05:56:13;95855.44;;;0.04;100.00
7824;BME280;3957;48.61947800;9.05303100;2022-11-14T05:57:53;95845.59;;;0.06;100.00
7824;BME280;3957;48.61947800;9.05303100;2022-11-14T05:59:35;95847.94;;;0.09;100.00
7824;BME280;3957;48.61947800;9.05303100;2022-11-14T06:01:17;95846.66;;;0.13;100.00
7824;BME280;3957;48.61947800;9.05303100;2022-11-14T06:02:56;95856.75;;;0.17;100.00
7824;BME280;3957;48.61947800;9.05303100;2022-11-14T06:04:36;95854.66;;;0.21;100.00
7824;BME280;3957;48.61947800;9.05303100;2022-11-14T06:06:17;95862.41;;;0.23;100.00
7824;BME280;3957;48.61947800;9.05303100;2022-11-14T06:07:57;95869.72;;;0.29;100.00
7824;BME280;3957;48.61947800;9.05303100;2022-11-14T06:09:37;95867.78;;;0.31;100.00
7824;BME280;3957;48.61947800;9.05303100;2022-11-14T06:11:19;95871.47;;;0.38;100.00
7824;BME280;3957;48.61947800;9.05303100;2022-11-14T06:12:58;95874.13;;;0.38;100.00
7824;BME280;3957;48.61947800;9.05303100;2022-11-14T06:14:37;95875.47;;;0.42;100.00
7824;BME280;3957;48.61947800;9.05303100;2022-11-14T06:16:18;95874.91;;;0.48;100.00
7824;BME280;3957;48.61947800;9.05303100;2022-11-14T06:17:57;95884.19;;;0.53;100.00
7824;BME280;3957;48.61947800;9.05303100;2022-11-14T06:19:36;95887.47;;;0.55;100.00
7824;BME280;3957;48.61947800;9.05303100;2022-11-14T06:21:17;95888.84;;;0.59;100.00
7824;BME280;3957;48.61947800;9.05303100;2022-11-14T06:22:57;95892.41;;;0.67;100.00
7824;BME280;3957;48.61947800;9.05303100;2022-11-14T06:24:37;95889.03;;;0.75;100.00
7824;BME280;3957;48.61947800;9.05303100;2022-11-14T06:26:21;95880.91;;;0.87;100.00
7824;BME280;3957;48.61947800;9.05303100;2022-11-14T06:28:01;95880.44;;;1.01;100.00
7824;BME280;3957;48.61947800;9.05303100;2022-11-14T06:29:40;95876.59;;;1.13;100.00
7824;BME280;3957;48.61947800;9.05303100;2022-11-14T06:31:20;95879.16;;;1.23;100.00
7824;BME280;3957;48.61947800;9.05303100;2022-11-14T06:32:59;95876.44;;;1.33;100.00
7824;BME280;3957;48.61947800;9.05303100;2022-11-14T06:34:39;95879.56;;;1.36;100.00
7824;BME280;3957;48.61947800;9.05303100;2022-11-14T06:36:18;95874.84;;;1.40;100.00
7824;BME280;3957;48.61947800;9.05303100;2022-11-14T06:37:59;95876.03;;;1.46;100.00
7824;BME280;3957;48.61947800;9.05303100;2022-11-14T06:39:38;95874.16;;;1.56;100.00
7824;BME280;3957;48.61947800;9.05303100;2022-11-14T06:41:19;95870.22;;;1.60;100.00
7824;BME280;3957;48.61947800;9.05303100;2022-11-14T06:42:58;95868.16;;;1.72;100.00
7824;BME280;3957;48.61947800;9.05303100;2022-11-14T06:44:38;95871.88;;;1.87;100.00
7824;BME280;3957;48.61947800;9.05303100;2022-11-14T06:46:19;95874.94;;;2.01;100.00
7824;BME280;3957;48.61947800;9.05303100;2022-11-14T06:47:58;95871.53;;;2.09;100.00
7824;BME280;3957;48.61947800;9.05303100;2022-11-14T06:49:37;95857.69;;;2.15;100.00
7824;BME280;3957;48.61947800;9.05303100;2022-11-14T06:51:17;95860.91;;;2.27;100.00
7824;BME280;3957;48.61947800;9.05303100;2022-11-14T06:52:57;95862.13;;;2.41;100.00
7824;BME280;3957;48.61947800;9.05303100;2022-11-14T06:54:36;95859.03;;;2.53;100.00
7824;BME280;3957;48.61947800;9.05303100;2022-11-14T06:56:16;95861.06;;;2.60;100.00
7824;BME280;3957;48.61947800;9.05303100;2022-11-14T06:57:56;95860.03;;;2.61;100.00
7824;BME280;3957;48.61947800;9.05303100;2022-11-14T06:59:35;95865.16;;;2.62;100.00
7824;BME280;3957;48.61947800;9.05303100;2022-11-14T07:01:19;95847.19;;;2.66;100.00
7824;BME280;3957;48.61947800;9.05303100;2022-11-14T07:02:59;95846.03;;;2.68;100.00
7824;BME280;3957;48.61947800;9.05303100;2022-11-14T07:04:38;95840.28;;;2.73;100.00
7824;BME280;3957;48.61947800;9.05303100;2022-11-14T07:06:20;95846.53;;;2.72;100.00
7824;BME280;3957;48.61947800;9.05303100;2022-11-14T07:08:00;95856.44;;;2.70;100.00
7824;BME280;3957;48.61947800;9.05303100;2022-11-14T07:09:39;95851.34;;;2.68;100.00
7824;BME280;3957;48.61947800;9.05303100;2022-11-14T07:11:21;95861.38;;;2.65;100.00
7824;BME280;3957;48.61947800;9.05303100;2022-11-14T07:13:00;95853.81;;;2.70;100.00
7824;BME280;3957;48.61947800;9.05303100;2022-11-14T07:14:39;95854.81;;;2.77;100.00
7824;BME280;3957;48.61947800;9.05303100;2022-11-14T07:16:22;95863.75;;;2.84;100.00
7824;BME280;3957;48.61947800;9.05303100;2022-11-14T07:18:02;95859.78;;;2.88;100.00
7824;BME280;3957;48.61947800;9.05303100;2022-11-14T07:19:41;95865.75;;;2.91;100.00
7824;BME280;3957;48.61947800;9.05303100;2022-11-14T07:21:21;95866.13;;;2.96;100.00
7824;BME280;3957;48.61947800;9.05303100;2022-11-14T07:23:01;95861.00;;;2.94;100.00
7824;BME280;3957;48.61947800;9.05303100;2022-11-14T07:24:40;95871.56;;;2.94;100.00
7824;BME280;3957;48.61947800;9.05303100;2022-11-14T07:26:19;95869.41;;;2.98;100.00
7824;BME280;3957;48.61947800;9.05303100;2022-11-14T07:27:59;95865.28;;;3.03;100.00
7824;BME280;3957;48.61947800;9.05303100;2022-11-14T07:29:38;95863.50;;;3.04;100.00
7824;BME280;3957;48.61947800;9.05303100;2022-11-14T07:31:18;95865.81;;;3.07;100.00
7824;BME280;3957;48.61947800;9.05303100;2022-11-14T07:32:58;95863.66;;;3.19;100.00
7824;BME280;3957;48.61947800;9.05303100;2022-11-14T07:34:37;95865.00;;;3.31;100.00
7824;BME280;3957;48.61947800;9.05303100;2022-11-14T07:36:16;95856.59;;;3.36;100.00
7824;BME280;3957;48.61947800;9.05303100;2022-11-14T07:38:03;95862.88;;;3.43;100.00
7824;BME280;3957;48.61947800;9.05303100;2022-11-14T07:39:42;95868.31;;;3.50;100.00
7824;BME280;3957;48.61947800;9.05303100;2022-11-14T07:41:22;95867.00;;;3.54;100.00
7824;BME280;3957;48.61947800;9.05303100;2022-11-14T07:43:01;95865.50;;;3.68;100.00
7824;BME280;3957;48.61947800;9.05303100;2022-11-14T07:44:41;95876.09;;;3.76;100.00
7824;BME280;3957;48.61947800;9.05303100;2022-11-14T07:46:20;95872.59;;;3.84;100.00
7824;BME280;3957;48.61947800;9.05303100;2022-11-14T07:48:00;95874.06;;;3.95;100.00
7824;BME280;3957;48.61947800;9.05303100;2022-11-14T07:49:40;95884.00;;;4.01;100.00
7824;BME280;3957;48.61947800;9.05303100;2022-11-14T07:51:19;95879.19;;;4.04;100.00
7824;BME280;3957;48.61947800;9.05303100;2022-11-14T07:52:58;95886.81;;;4.07;100.00
7824;BME280;3957;48.61947800;9.05303100;2022-11-14T07:54:37;95884.81;;;4.18;100.00
7824;BME280;3957;48.61947800;9.05303100;2022-11-14T07:56:17;95885.53;;;4.51;100.00
7824;BME280;3957;48.61947800;9.05303100;2022-11-14T07:57:58;95884.97;;;4.72;100.00